sensor_id;sensor_type;location;lat;lon;timestamp;P1;durP1;ratioP1;P2;durP2;ratioP2
44462;SDS011;30170;52.190;8.702;2023-01-30T00:01:22;62.80;;;43.00;;
44462;SDS011;30170;52.190;8.702;2023-01-30T00:03:50;59.22;;;42.83;;
44462;SDS011;30170;52.190;8.702;2023-01-30T00:06:17;70.90;;;57.05;;
44462;SDS011;30170;52.190;8.702;2023-01-30T00:08:45;62.63;;;40.63;;
44462;SDS011;30170;52.190;8.702;2023-01-30T00:11:13;75.28;;;58.25;;
44462;SDS011;30170;52.190;8.702;2023-01-30T00:13:41;59.50;;;37.67;;
44462;SDS011;30170;52.190;8.702;2023-01-30T00:16:08;69.47;;;53.63;;
44462;SDS011;30170;52.190;8.702;2023-01-30T00:18:36;61.88;;;48.83;;
44462;SDS011;30170;52.190;8.702;2023-01-30T00:21:04;57.33;;;37.35;;
44462;SDS011;30170;52.190;8.702;2023-01-30T00:23:32;63.83;;;50.50;;
44462;SDS011;30170;52.190;8.702;2023-01-30T00:26:00;57.65;;;37.70;;
44462;SDS011;30170;52.190;8.702;2023-01-30T00:28:27;62.15;;;40.35;;
44462;SDS011;30170;52.190;8.702;2023-01-30T00:30:57;62.47;;;48.92;;
44462;SDS011;30170;52.190;8.702;2023-01-30T00:33:25;64.35;;;49.00;;
44462;SDS011;30170;52.190;8.702;2023-01-30T00:35:53;74.82;;;49.42;;
44462;SDS011;30170;52.190;8.702;2023-01-30T00:38:21;60.20;;;41.30;;
44462;SDS011;30170;52.190;8.702;2023-01-30T00:40:48;61.42;;;38.22;;
44462;SDS011;30170;52.190;8.702;2023-01-30T00:43:17;64.50;;;50.35;;
44462;SDS011;30170;52.190;8.702;2023-01-30T00:46:04;57.28;;;39.38;;
44462;SDS011;30170;52.190;8.702;2023-01-30T00:49:11;66.05;;;53.58;;
44462;SDS011;30170;52.190;8.702;2023-01-30T00:51:38;75.25;;;50.25;;
44462;SDS011;30170;52.190;8.702;2023-01-30T00:54:05;64.78;;;46.03;;
44462;SDS011;30170;52.190;8.702;2023-01-30T00:56:32;66.40;;;50.30;;
44462;SDS011;30170;52.190;8.702;2023-01-30T00:59:00;63.47;;;38.58;;
44462;SDS011;30170;52.190;8.702;2023-01-30T01:01:27;64.82;;;41.03;;
44462;SDS011;30170;52.190;8.702;2023-01-30T01:03:54;70.43;;;41.22;;
44462;SDS011;30170;52.190;8.702;2023-01-30T01:06:21;85.28;;;53.58;;
44462;SDS011;30170;52.190;8.702;2023-01-30T01:08:49;67.03;;;45.42;;
44462;SDS011;30170;52.190;8.702;2023-01-30T01:11:16;72.28;;;40.97;;
44462;SDS011;30170;52.190;8.702;2023-01-30T01:13:53;58.40;;;39.40;;
44462;SDS011;30170;52.190;8.702;2023-01-30T01:16:21;71.40;;;36.28;;
44462;SDS011;30170;52.190;8.702;2023-01-30T01:18:49;75.88;;;38.58;;
44462;SDS011;30170;52.190;8.702;2023-01-30T01:21:16;76.03;;;46.22;;
44462;SDS011;30170;52.190;8.702;2023-01-30T01:23:58;78.00;;;45.88;;
44462;SDS011;30170;52.190;8.702;2023-01-30T01:26:26;84.18;;;48.72;;
44462;SDS011;30170;52.190;8.702;2023-01-30T01:28:54;82.45;;;41.22;;
44462;SDS011;30170;52.190;8.702;2023-01-30T01:31:21;76.43;;;38.13;;
44462;SDS011;30170;52.190;8.702;2023-01-30T01:33:50;81.32;;;44.88;;
44462;SDS011;30170;52.190;8.702;2023-01-30T01:36:17;81.85;;;42.83;;
44462;SDS011;30170;52.190;8.702;2023-01-30T01:39:04;92.47;;;47.05;;
44462;SDS011;30170;52.190;8.702;2023-01-30T01:41:32;95.00;;;48.45;;
44462;SDS011;30170;52.190;8.702;2023-01-30T02:02:48;72.43;;;40.47;;
44462;SDS011;30170;52.190;8.702;2023-01-30T02:05:16;80.63;;;44.45;;
44462;SDS011;30170;52.190;8.702;2023-01-30T02:07:49;82.28;;;47.10;;
44462;SDS011;30170;52.190;8.702;2023-01-30T02:10:22;79.97;;;49.50;;
44462;SDS011;30170;52.190;8.702;2023-01-30T02:12:50;76.63;;;52.70;;
44462;SDS011;30170;52.190;8.702;2023-01-30T02:15:19;85.57;;;46.40;;
44462;SDS011;30170;52.190;8.702;2023-01-30T02:17:46;91.43;;;52.50;;
44462;SDS011;30170;52.190;8.702;2023-01-30T02:25:28;93.10;;;49.05;;
44462;SDS011;30170;52.190;8.702;2023-01-30T02:35:49;107.13;;;57.05;;
44462;SDS011;30170;52.190;8.702;2023-01-30T02:38:35;97.40;;;56.25;;
44462;SDS011;30170;52.190;8.702;2023-01-30T02:43:38;100.93;;;55.97;;
44462;SDS011;30170;52.190;8.702;2023-01-30T02:48:55;96.88;;;50.72;;
44462;SDS011;30170;52.190;8.702;2023-01-30T02:51:30;109.93;;;53.80;;
44462;SDS011;30170;52.190;8.702;2023-01-30T02:54:00;102.25;;;47.90;;
44462;SDS011;30170;52.190;8.702;2023-01-30T02:56:27;109.60;;;53.60;;
44462;SDS011;30170;52.190;8.702;2023-01-30T02:58:56;104.43;;;55.67;;
44462;SDS011;30170;52.190;8.702;2023-01-30T03:01:41;107.05;;;51.47;;
44462;SDS011;30170;52.190;8.702;2023-01-30T03:04:21;104.53;;;51.22;;
44462;SDS011;30170;52.190;8.702;2023-01-30T03:07:20;97.75;;;42.67;;
44462;SDS011;30170;52.190;8.702;2023-01-30T03:12:29;120.55;;;58.10;;
44462;SDS011;30170;52.190;8.702;2023-01-30T03:15:04;102.75;;;55.45;;
44462;SDS011;30170;52.190;8.702;2023-01-30T03:17:39;106.47;;;52.63;;
44462;SDS011;30170;52.190;8.702;2023-01-30T03:20:22;99.47;;;58.15;;
44462;SDS011;30170;52.190;8.702;2023-01-30T03:23:26;123.03;;;53.80;;
44462;SDS011;30170;52.190;8.702;2023-01-30T03:25:58;123.82;;;61.90;;
44462;SDS011;30170;52.190;8.702;2023-01-30T03:28:53;107.35;;;50.80;;
44462;SDS011;30170;52.190;8.702;2023-01-30T03:31:21;130.38;;;83.72;;
44462;SDS011;30170;52.190;8.702;2023-01-30T03:33:49;107.13;;;43.20;;
44462;SDS011;30170;52.190;8.702;2023-01-30T03:36:19;128.05;;;59.40;;
44462;SDS011;30170;52.190;8.702;2023-01-30T03:38:55;100.35;;;50.83;;
44462;SDS011;30170;52.190;8.702;2023-01-30T03:41:32;117.55;;;55.10;;
44462;SDS011;30170;52.190;8.702;2023-01-30T03:44:04;100.40;;;45.42;;
44462;SDS011;30170;52.190;8.702;2023-01-30T03:46:32;98.07;;;45.72;;
44462;SDS011;30170;52.190;8.702;2023-01-30T03:48:59;87.45;;;42.28;;
44462;SDS011;30170;52.190;8.702;2023-01-30T03:51:26;78.15;;;42.72;;
44462;SDS011;30170;52.190;8.702;2023-01-30T03:53:58;77.53;;;33.13;;
44462;SDS011;30170;52.190;8.702;2023-01-30T03:56:26;92.70;;;42.70;;
44462;SDS011;30170;52.190;8.702;2023-01-30T03:58:57;77.68;;;38.80;;
44462;SDS011;30170;52.190;8.702;2023-01-30T04:01:24;83.45;;;41.75;;
44462;SDS011;30170;52.190;8.702;2023-01-30T04:03:55;73.13;;;37.90;;
44462;SDS011;30170;52.190;8.702;2023-01-30T04:06:25;66.53;;;36.17;;
44462;SDS011;30170;52.190;8.702;2023-01-30T04:08:53;73.40;;;40.92;;
44462;SDS011;30170;52.190;8.702;2023-01-30T04:11:21;76.25;;;43.10;;
44462;SDS011;30170;52.190;8.702;2023-01-30T04:13:48;73.88;;;40.15;;
44462;SDS011;30170;52.190;8.702;2023-01-30T04:16:23;63.50;;;36.33;;
44462;SDS011;30170;52.190;8.702;2023-01-30T04:18:52;71.00;;;35.78;;
44462;SDS011;30170;52.190;8.702;2023-01-30T04:21:19;67.57;;;44.00;;
44462;SDS011;30170;52.190;8.702;2023-01-30T04:23:49;69.47;;;41.45;;
44462;SDS011;30170;52.190;8.702;2023-01-30T04:26:18;73.47;;;40.60;;
44462;SDS011;30170;52.190;8.702;2023-01-30T04:28:45;64.53;;;28.98;;
44462;SDS011;30170;52.190;8.702;2023-01-30T04:31:12;73.13;;;38.42;;
44462;SDS011;30170;52.190;8.702;2023-01-30T04:33:39;73.20;;;39.75;;
44462;SDS011;30170;52.190;8.702;2023-01-30T04:36:09;78.05;;;44.40;;
44462;SDS011;30170;52.190;8.702;2023-01-30T04:41:55;80.88;;;42.45;;
44462;SDS011;30170;52.190;8.702;2023-01-30T04:44:25;85.50;;;44.95;;
44462;SDS011;30170;52.190;8.702;2023-01-30T04:47:01;85.45;;;45.33;;
44462;SDS011;30170;52.190;8.702;2023-01-30T04:49:28;90.40;;;47.65;;
44462;SDS011;30170;52.190;8.702;2023-01-30T04:51:55;78.53;;;45.58;;
44462;SDS011;30170;52.190;8.702;2023-01-30T04:54:22;67.05;;;36.03;;
44462;SDS011;30170;52.190;8.702;2023-01-30T04:56:49;79.45;;;42.30;;
44462;SDS011;30170;52.190;8.702;2023-01-30T04:59:20;60.13;;;34.00;;
44462;SDS011;30170;52.190;8.702;2023-01-30T05:01:49;72.00;;;39.20;;
44462;SDS011;30170;52.190;8.702;2023-01-30T05:04:16;62.17;;;33.60;;
44462;SDS011;30170;52.190;8.702;2023-01-30T05:06:46;59.75;;;34.28;;
44462;SDS011;30170;52.190;8.702;2023-01-30T05:09:13;63.40;;;34.50;;
44462;SDS011;30170;52.190;8.702;2023-01-30T05:11:40;62.35;;;39.35;;
44462;SDS011;30170;52.190;8.702;2023-01-30T05:14:11;62.28;;;37.35;;
44462;SDS011;30170;52.190;8.702;2023-01-30T05:16:38;51.53;;;33.80;;
44462;SDS011;30170;52.190;8.702;2023-01-30T05:19:09;49.25;;;28.70;;
44462;SDS011;30170;52.190;8.702;2023-01-30T05:21:39;57.20;;;40.42;;
44462;SDS011;30170;52.190;8.702;2023-01-30T05:24:06;50.75;;;35.92;;
44462;SDS011;30170;52.190;8.702;2023-01-30T05:26:33;47.97;;;30.60;;
44462;SDS011;30170;52.190;8.702;2023-01-30T05:29:00;51.05;;;36.80;;
44462;SDS011;30170;52.190;8.702;2023-01-30T05:31:29;51.60;;;34.58;;
44462;SDS011;30170;52.190;8.702;2023-01-30T05:33:57;50.85;;;37.50;;
44462;SDS011;30170;52.190;8.702;2023-01-30T05:36:24;51.78;;;38.63;;
44462;SDS011;30170;52.190;8.702;2023-01-30T05:38:54;49.53;;;44.13;;
44462;SDS011;30170;52.190;8.702;2023-01-30T05:41:21;57.72;;;51.22;;
44462;SDS011;30170;52.190;8.702;2023-01-30T05:43:48;54.92;;;43.42;;
44462;SDS011;30170;52.190;8.702;2023-01-30T05:46:16;57.30;;;42.92;;
44462;SDS011;30170;52.190;8.702;2023-01-30T05:48:43;66.47;;;59.65;;
44462;SDS011;30170;52.190;8.702;2023-01-30T05:51:23;66.35;;;59.58;;
44462;SDS011;30170;52.190;8.702;2023-01-30T05:53:51;50.65;;;43.70;;
44462;SDS011;30170;52.190;8.702;2023-01-30T05:56:19;53.28;;;48.05;;
44462;SDS011;30170;52.190;8.702;2023-01-30T05:58:53;52.78;;;47.05;;
44462;SDS011;30170;52.190;8.702;2023-01-30T06:01:21;37.58;;;34.38;;
44462;SDS011;30170;52.190;8.702;2023-01-30T06:03:53;45.97;;;41.92;;
44462;SDS011;30170;52.190;8.702;2023-01-30T06:06:21;41.05;;;37.30;;
44462;SDS011;30170;52.190;8.702;2023-01-30T06:08:51;41.40;;;38.00;;
44462;SDS011;30170;52.190;8.702;2023-01-30T06:11:22;42.60;;;38.88;;
44462;SDS011;30170;52.190;8.702;2023-01-30T06:13:50;38.47;;;35.53;;
44462;SDS011;30170;52.190;8.702;2023-01-30T06:16:17;40.08;;;36.70;;
44462;SDS011;30170;52.190;8.702;2023-01-30T06:18:47;44.13;;;40.75;;
44462;SDS011;30170;52.190;8.702;2023-01-30T06:21:14;23.25;;;21.05;;
44462;SDS011;30170;52.190;8.702;2023-01-30T06:23:43;34.83;;;31.50;;
44462;SDS011;30170;52.190;8.702;2023-01-30T06:26:11;20.60;;;18.70;;
44462;SDS011;30170;52.190;8.702;2023-01-30T06:28:38;15.77;;;9.70;;
44462;SDS011;30170;52.190;8.702;2023-01-30T06:31:06;46.75;;;43.08;;
44462;SDS011;30170;52.190;8.702;2023-01-30T06:33:34;38.38;;;35.30;;
44462;SDS011;30170;52.190;8.702;2023-01-30T06:36:04;32.28;;;28.98;;
44462;SDS011;30170;52.190;8.702;2023-01-30T06:38:35;26.40;;;23.88;;
44462;SDS011;30170;52.190;8.702;2023-01-30T06:41:30;37.72;;;34.47;;
44462;SDS011;30170;52.190;8.702;2023-01-30T06:44:20;34.50;;;31.35;;
44462;SDS011;30170;52.190;8.702;2023-01-30T06:47:07;41.33;;;37.97;;
44462;SDS011;30170;52.190;8.702;2023-01-30T06:49:39;37.30;;;33.65;;
44462;SDS011;30170;52.190;8.702;2023-01-30T06:52:06;33.70;;;30.60;;
44462;SDS011;30170;52.190;8.702;2023-01-30T06:54:33;45.65;;;42.08;;
44462;SDS011;30170;52.190;8.702;2023-01-30T06:57:02;44.67;;;41.47;;
44462;SDS011;30170;52.190;8.702;2023-01-30T06:59:29;24.08;;;21.58;;
44462;SDS011;30170;52.190;8.702;2023-01-30T07:01:59;33.20;;;26.75;;
44462;SDS011;30170;52.190;8.702;2023-01-30T07:04:27;41.83;;;38.65;;
44462;SDS011;30170;52.190;8.702;2023-01-30T07:07:00;29.40;;;26.75;;
44462;SDS011;30170;52.190;8.702;2023-01-30T07:09:27;28.92;;;25.88;;
44462;SDS011;30170;52.190;8.702;2023-01-30T07:11:54;38.38;;;35.50;;
44462;SDS011;30170;52.190;8.702;2023-01-30T07:14:22;29.50;;;26.73;;
44462;SDS011;30170;52.190;8.702;2023-01-30T07:16:49;44.65;;;40.97;;
44462;SDS011;30170;52.190;8.702;2023-01-30T07:19:16;33.35;;;30.17;;
44462;SDS011;30170;52.190;8.702;2023-01-30T07:21:42;32.78;;;30.10;;
44462;SDS011;30170;52.190;8.702;2023-01-30T07:24:09;27.48;;;25.25;;
44462;SDS011;30170;52.190;8.702;2023-01-30T07:26:36;30.45;;;27.85;;
44462;SDS011;30170;52.190;8.702;2023-01-30T07:29:03;34.67;;;28.40;;
44462;SDS011;30170;52.190;8.702;2023-01-30T07:31:42;28.55;;;26.20;;
44462;SDS011;30170;52.190;8.702;2023-01-30T07:34:26;32.42;;;28.70;;
44462;SDS011;30170;52.190;8.702;2023-01-30T07:36:53;27.52;;;25.20;;
44462;SDS011;30170;52.190;8.702;2023-01-30T07:39:21;43.53;;;39.17;;
44462;SDS011;30170;52.190;8.702;2023-01-30T07:41:48;43.25;;;39.92;;
44462;SDS011;30170;52.190;8.702;2023-01-30T07:44:16;29.60;;;26.67;;
44462;SDS011;30170;52.190;8.702;2023-01-30T07:46:43;46.15;;;42.72;;
44462;SDS011;30170;52.190;8.702;2023-01-30T07:49:10;35.72;;;32.97;;
44462;SDS011;30170;52.190;8.702;2023-01-30T07:51:47;31.55;;;28.25;;
44462;SDS011;30170;52.190;8.702;2023-01-30T07:54:14;47.70;;;43.75;;
44462;SDS011;30170;52.190;8.702;2023-01-30T07:56:41;31.40;;;28.52;;
44462;SDS011;30170;52.190;8.702;2023-01-30T07:59:09;45.78;;;42.08;;
44462;SDS011;30170;52.190;8.702;2023-01-30T08:01:37;33.10;;;30.50;;
44462;SDS011;30170;52.190;8.702;2023-01-30T08:04:04;42.97;;;38.50;;
44462;SDS011;30170;52.190;8.702;2023-01-30T08:06:33;41.08;;;37.65;;
44462;SDS011;30170;52.190;8.702;2023-01-30T08:09:04;45.55;;;41.25;;
44462;SDS011;30170;52.190;8.702;2023-01-30T08:11:32;32.28;;;29.65;;
44462;SDS011;30170;52.190;8.702;2023-01-30T08:14:00;36.97;;;33.53;;
44462;SDS011;30170;52.190;8.702;2023-01-30T08:16:27;27.98;;;25.52;;
44462;SDS011;30170;52.190;8.702;2023-01-30T08:18:57;29.10;;;23.55;;
44462;SDS011;30170;52.190;8.702;2023-01-30T08:21:24;30.98;;;28.20;;
44462;SDS011;30170;52.190;8.702;2023-01-30T08:23:54;33.08;;;30.67;;
44462;SDS011;30170;52.190;8.702;2023-01-30T08:26:20;31.75;;;28.77;;
44462;SDS011;30170;52.190;8.702;2023-01-30T08:28:51;40.65;;;37.40;;
44462;SDS011;30170;52.190;8.702;2023-01-30T08:31:21;11.98;;;3.80;;
44462;SDS011;30170;52.190;8.702;2023-01-30T08:33:52;12.85;;;4.15;;
44462;SDS011;30170;52.190;8.702;2023-01-30T08:36:22;9.07;;;4.03;;
44462;SDS011;30170;52.190;8.702;2023-01-30T08:38:51;16.30;;;5.55;;
44462;SDS011;30170;52.190;8.702;2023-01-30T08:41:18;13.40;;;4.20;;
44462;SDS011;30170;52.190;8.702;2023-01-30T08:43:45;13.10;;;4.63;;
44462;SDS011;30170;52.190;8.702;2023-01-30T08:46:15;16.05;;;4.28;;
44462;SDS011;30170;52.190;8.702;2023-01-30T08:48:42;19.13;;;4.75;;
44462;SDS011;30170;52.190;8.702;2023-01-30T08:51:15;21.27;;;5.00;;
44462;SDS011;30170;52.190;8.702;2023-01-30T08:53:42;10.93;;;4.28;;
44462;SDS011;30170;52.190;8.702;2023-01-30T08:56:11;14.18;;;3.67;;
44462;SDS011;30170;52.190;8.702;2023-01-30T08:58:38;11.50;;;4.05;;
44462;SDS011;30170;52.190;8.702;2023-01-30T09:01:06;13.55;;;4.53;;
44462;SDS011;30170;52.190;8.702;2023-01-30T09:03:33;12.65;;;4.43;;
44462;SDS011;30170;52.190;8.702;2023-01-30T09:06:00;15.90;;;3.72;;
44462;SDS011;30170;52.190;8.702;2023-01-30T09:08:31;11.85;;;3.85;;
44462;SDS011;30170;52.190;8.702;2023-01-30T09:10:58;17.50;;;4.35;;
44462;SDS011;30170;52.190;8.702;2023-01-30T09:13:26;20.60;;;5.35;;
44462;SDS011;30170;52.190;8.702;2023-01-30T09:15:53;13.13;;;4.50;;
44462;SDS011;30170;52.190;8.702;2023-01-30T09:18:20;14.27;;;3.88;;
44462;SDS011;30170;52.190;8.702;2023-01-30T09:20:50;20.05;;;4.60;;
44462;SDS011;30170;52.190;8.702;2023-01-30T09:23:19;14.20;;;3.47;;
44462;SDS011;30170;52.190;8.702;2023-01-30T09:25:46;10.55;;;3.75;;
44462;SDS011;30170;52.190;8.702;2023-01-30T09:28:13;12.40;;;3.83;;
44462;SDS011;30170;52.190;8.702;2023-01-30T09:30:40;11.80;;;4.18;;
44462;SDS011;30170;52.190;8.702;2023-01-30T09:33:07;13.38;;;3.50;;
44462;SDS011;30170;52.190;8.702;2023-01-30T09:35:34;10.55;;;3.42;;
44462;SDS011;30170;52.190;8.702;2023-01-30T09:38:01;11.88;;;3.90;;
44462;SDS011;30170;52.190;8.702;2023-01-30T09:40:30;10.35;;;3.53;;
44462;SDS011;30170;52.190;8.702;2023-01-30T09:45:52;16.52;;;3.55;;
44462;SDS011;30170;52.190;8.702;2023-01-30T09:51:11;15.50;;;4.22;;
44462;SDS011;30170;52.190;8.702;2023-01-30T09:56:39;12.18;;;3.33;;
44462;SDS011;30170;52.190;8.702;2023-01-30T09:59:09;10.77;;;3.83;;
44462;SDS011;30170;52.190;8.702;2023-01-30T10:04:43;12.82;;;4.00;;
44462;SDS011;30170;52.190;8.702;2023-01-30T10:07:31;16.15;;;4.53;;
44462;SDS011;30170;52.190;8.702;2023-01-30T10:24:50;8.77;;;3.20;;
44462;SDS011;30170;52.190;8.702;2023-01-30T10:27:31;14.38;;;4.32;;
44462;SDS011;30170;52.190;8.702;2023-01-30T10:30:09;14.65;;;4.32;;
44462;SDS011;30170;52.190;8.702;2023-01-30T10:32:54;22.70;;;4.38;;
44462;SDS011;30170;52.190;8.702;2023-01-30T10:35:37;17.75;;;4.72;;
44462;SDS011;30170;52.190;8.702;2023-01-30T10:38:25;16.08;;;4.10;;
44462;SDS011;30170;52.190;8.702;2023-01-30T10:43:51;18.25;;;4.57;;
44462;SDS011;30170;52.190;8.702;2023-01-30T10:56:17;10.40;;;3.45;;
44462;SDS011;30170;52.190;8.702;2023-01-30T11:06:27;11.60;;;3.88;;
44462;SDS011;30170;52.190;8.702;2023-01-30T11:09:21;12.48;;;3.65;;
44462;SDS011;30170;52.190;8.702;2023-01-30T11:12:05;22.38;;;4.00;;
44462;SDS011;30170;52.190;8.702;2023-01-30T11:14:52;14.65;;;4.40;;
44462;SDS011;30170;52.190;8.702;2023-01-30T11:17:34;14.68;;;3.70;;
44462;SDS011;30170;52.190;8.702;2023-01-30T11:20:24;11.73;;;3.45;;
44462;SDS011;30170;52.190;8.702;2023-01-30T11:26:17;18.05;;;5.85;;
44462;SDS011;30170;52.190;8.702;2023-01-30T11:28:53;22.35;;;4.97;;
44462;SDS011;30170;52.190;8.702;2023-01-30T11:35:34;15.33;;;4.27;;
44462;SDS011;30170;52.190;8.702;2023-01-30T11:44:29;15.77;;;4.65;;
44462;SDS011;30170;52.190;8.702;2023-01-30T11:47:08;13.20;;;3.50;;
44462;SDS011;30170;52.190;8.702;2023-01-30T11:49:40;22.35;;;4.90;;
44462;SDS011;30170;52.190;8.702;2023-01-30T11:52:33;16.25;;;4.85;;
44462;SDS011;30170;52.190;8.702;2023-01-30T13:22:34;17.33;;;4.43;;
44462;SDS011;30170;52.190;8.702;2023-01-30T13:25:16;9.80;;;2.92;;
44462;SDS011;30170;52.190;8.702;2023-01-30T13:28:18;10.50;;;3.13;;
44462;SDS011;30170;52.190;8.702;2023-01-30T13:30:51;12.02;;;3.78;;
44462;SDS011;30170;52.190;8.702;2023-01-30T13:33:22;11.20;;;3.40;;
44462;SDS011;30170;52.190;8.702;2023-01-30T13:35:52;10.38;;;3.38;;
44462;SDS011;30170;52.190;8.702;2023-01-30T13:38:23;12.55;;;5.40;;
44462;SDS011;30170;52.190;8.702;2023-01-30T13:40:55;17.35;;;3.83;;
44462;SDS011;30170;52.190;8.702;2023-01-30T13:43:38;13.88;;;4.18;;
44462;SDS011;30170;52.190;8.702;2023-01-30T13:46:08;8.05;;;4.25;;
44462;SDS011;30170;52.190;8.702;2023-01-30T13:48:43;11.93;;;3.83;;
44462;SDS011;30170;52.190;8.702;2023-01-30T14:10:05;11.07;;;3.00;;
44462;SDS011;30170;52.190;8.702;2023-01-30T14:12:42;12.40;;;2.83;;
44462;SDS011;30170;52.190;8.702;2023-01-30T14:20:24;10.00;;;2.70;;
44462;SDS011;30170;52.190;8.702;2023-01-30T14:22:53;11.63;;;2.83;;
44462;SDS011;30170;52.190;8.702;2023-01-30T14:30:37;8.23;;;2.45;;
44462;SDS011;30170;52.190;8.702;2023-01-30T14:38:19;8.65;;;2.28;;
44462;SDS011;30170;52.190;8.702;2023-01-30T14:41:22;6.88;;;2.22;;
44462;SDS011;30170;52.190;8.702;2023-01-30T14:48:55;7.10;;;2.35;;
44462;SDS011;30170;52.190;8.702;2023-01-30T14:53:58;14.23;;;2.78;;
44462;SDS011;30170;52.190;8.702;2023-01-30T14:59:07;7.57;;;2.53;;
44462;SDS011;30170;52.190;8.702;2023-01-30T15:06:58;11.00;;;3.22;;
44462;SDS011;30170;52.190;8.702;2023-01-30T15:09:27;12.25;;;2.92;;
44462;SDS011;30170;52.190;8.702;2023-01-30T15:12:17;11.48;;;2.88;;
44462;SDS011;30170;52.190;8.702;2023-01-30T15:17:19;10.52;;;3.65;;
44462;SDS011;30170;52.190;8.702;2023-01-30T15:19:55;12.43;;;2.67;;
44462;SDS011;30170;52.190;8.702;2023-01-30T15:22:33;6.75;;;2.97;;
44462;SDS011;30170;52.190;8.702;2023-01-30T15:33:23;14.23;;;2.70;;
44462;SDS011;30170;52.190;8.702;2023-01-30T15:35:57;14.63;;;3.25;;
44462;SDS011;30170;52.190;8.702;2023-01-30T15:38:33;9.88;;;3.05;;
44462;SDS011;30170;52.190;8.702;2023-01-30T15:41:02;6.05;;;2.60;;
44462;SDS011;30170;52.190;8.702;2023-01-30T15:46:22;10.30;;;3.05;;
44462;SDS011;30170;52.190;8.702;2023-01-30T15:51:33;14.55;;;4.43;;
44462;SDS011;30170;52.190;8.702;2023-01-30T15:54:02;21.35;;;3.20;;
44462;SDS011;30170;52.190;8.702;2023-01-30T15:56:41;13.45;;;3.13;;
44462;SDS011;30170;52.190;8.702;2023-01-30T15:59:21;10.30;;;4.33;;
44462;SDS011;30170;52.190;8.702;2023-01-30T16:04:43;5.50;;;2.88;;
44462;SDS011;30170;52.190;8.702;2023-01-30T16:10:54;13.93;;;2.80;;
44462;SDS011;30170;52.190;8.702;2023-01-30T16:13:22;13.93;;;3.47;;
44462;SDS011;30170;52.190;8.702;2023-01-30T16:16:12;11.48;;;3.20;;
44462;SDS011;30170;52.190;8.702;2023-01-30T16:18:54;12.95;;;3.47;;
44462;SDS011;30170;52.190;8.702;2023-01-30T16:21:37;9.65;;;3.33;;
44462;SDS011;30170;52.190;8.702;2023-01-30T16:24:20;19.55;;;4.00;;
44462;SDS011;30170;52.190;8.702;2023-01-30T16:26:54;8.20;;;2.92;;
44462;SDS011;30170;52.190;8.702;2023-01-30T16:29:26;11.55;;;3.20;;
44462;SDS011;30170;52.190;8.702;2023-01-30T16:31:55;15.50;;;3.28;;
44462;SDS011;30170;52.190;8.702;2023-01-30T16:34:34;12.90;;;3.83;;
44462;SDS011;30170;52.190;8.702;2023-01-30T16:37:25;11.45;;;3.85;;
44462;SDS011;30170;52.190;8.702;2023-01-30T16:40:12;17.80;;;4.60;;
44462;SDS011;30170;52.190;8.702;2023-01-30T16:45:40;18.10;;;4.00;;
44462;SDS011;30170;52.190;8.702;2023-01-30T16:53:25;17.33;;;3.53;;
44462;SDS011;30170;52.190;8.702;2023-01-30T16:55:57;11.80;;;3.00;;
44462;SDS011;30170;52.190;8.702;2023-01-30T17:01:14;9.93;;;3.05;;
44462;SDS011;30170;52.190;8.702;2023-01-30T17:03:47;11.45;;;3.00;;
44462;SDS011;30170;52.190;8.702;2023-01-30T17:06:23;16.42;;;3.47;;
44462;SDS011;30170;52.190;8.702;2023-01-30T17:08:54;13.77;;;3.08;;
44462;SDS011;30170;52.190;8.702;2023-01-30T17:11:28;9.98;;;3.42;;
44462;SDS011;30170;52.190;8.702;2023-01-30T17:16:41;17.10;;;4.28;;
44462;SDS011;30170;52.190;8.702;2023-01-30T17:19:11;10.88;;;4.13;;
44462;SDS011;30170;52.190;8.702;2023-01-30T17:21:51;11.40;;;3.40;;
44462;SDS011;30170;52.190;8.702;2023-01-30T17:24:23;14.88;;;4.38;;
44462;SDS011;30170;52.190;8.702;2023-01-30T17:26:52;19.08;;;4.65;;
44462;SDS011;30170;52.190;8.702;2023-01-30T17:29:25;16.30;;;3.95;;
44462;SDS011;30170;52.190;8.702;2023-01-30T17:32:10;12.88;;;4.40;;
44462;SDS011;30170;52.190;8.702;2023-01-30T17:34:38;20.27;;;4.80;;
44462;SDS011;30170;52.190;8.702;2023-01-30T17:37:40;20.83;;;4.57;;
44462;SDS011;30170;52.190;8.702;2023-01-30T17:40:10;18.20;;;4.85;;
44462;SDS011;30170;52.190;8.702;2023-01-30T17:42:40;14.82;;;4.22;;
44462;SDS011;30170;52.190;8.702;2023-01-30T17:45:16;13.82;;;4.43;;
44462;SDS011;30170;52.190;8.702;2023-01-30T17:47:46;18.58;;;5.03;;
44462;SDS011;30170;52.190;8.702;2023-01-30T17:50:14;19.20;;;5.43;;
44462;SDS011;30170;52.190;8.702;2023-01-30T17:55:55;16.88;;;4.80;;
44462;SDS011;30170;52.190;8.702;2023-01-30T17:58:23;17.45;;;4.13;;
44462;SDS011;30170;52.190;8.702;2023-01-30T18:00:53;16.65;;;4.90;;
44462;SDS011;30170;52.190;8.702;2023-01-30T18:03:25;24.05;;;4.68;;
44462;SDS011;30170;52.190;8.702;2023-01-30T18:05:56;14.35;;;5.05;;
44462;SDS011;30170;52.190;8.702;2023-01-30T18:08:27;16.65;;;5.32;;
44462;SDS011;30170;52.190;8.702;2023-01-30T18:10:54;17.60;;;4.18;;
44462;SDS011;30170;52.190;8.702;2023-01-30T18:13:21;16.27;;;5.55;;
44462;SDS011;30170;52.190;8.702;2023-01-30T18:15:53;20.77;;;4.88;;
44462;SDS011;30170;52.190;8.702;2023-01-30T18:18:25;12.40;;;4.88;;
44462;SDS011;30170;52.190;8.702;2023-01-30T18:20:52;17.90;;;4.28;;
44462;SDS011;30170;52.190;8.702;2023-01-30T18:23:20;24.23;;;3.97;;
44462;SDS011;30170;52.190;8.702;2023-01-30T18:25:47;21.20;;;6.47;;
44462;SDS011;30170;52.190;8.702;2023-01-30T18:28:14;19.85;;;5.65;;
44462;SDS011;30170;52.190;8.702;2023-01-30T18:30:41;13.38;;;5.05;;
44462;SDS011;30170;52.190;8.702;2023-01-30T18:33:09;14.80;;;4.63;;
44462;SDS011;30170;52.190;8.702;2023-01-30T18:35:36;14.68;;;5.18;;
44462;SDS011;30170;52.190;8.702;2023-01-30T18:38:04;20.67;;;5.78;;
44462;SDS011;30170;52.190;8.702;2023-01-30T18:40:31;22.30;;;4.68;;
44462;SDS011;30170;52.190;8.702;2023-01-30T18:43:01;16.52;;;3.83;;
44462;SDS011;30170;52.190;8.702;2023-01-30T18:45:28;24.00;;;6.35;;
44462;SDS011;30170;52.190;8.702;2023-01-30T18:47:55;18.25;;;3.88;;
44462;SDS011;30170;52.190;8.702;2023-01-30T18:50:23;16.58;;;4.97;;
44462;SDS011;30170;52.190;8.702;2023-01-30T18:52:51;21.05;;;5.65;;
44462;SDS011;30170;52.190;8.702;2023-01-30T18:55:20;14.52;;;4.18;;
44462;SDS011;30170;52.190;8.702;2023-01-30T18:57:50;16.85;;;4.45;;
44462;SDS011;30170;52.190;8.702;2023-01-30T19:00:20;14.10;;;4.80;;
44462;SDS011;30170;52.190;8.702;2023-01-30T19:02:52;17.17;;;5.18;;
44462;SDS011;30170;52.190;8.702;2023-01-30T19:05:19;18.55;;;5.72;;
44462;SDS011;30170;52.190;8.702;2023-01-30T19:07:47;13.15;;;4.57;;
44462;SDS011;30170;52.190;8.702;2023-01-30T19:10:14;21.20;;;4.60;;
44462;SDS011;30170;52.190;8.702;2023-01-30T19:12:43;21.88;;;5.30;;
44462;SDS011;30170;52.190;8.702;2023-01-30T19:15:29;21.40;;;4.82;;
44462;SDS011;30170;52.190;8.702;2023-01-30T19:17:57;12.10;;;3.83;;
44462;SDS011;30170;52.190;8.702;2023-01-30T19:20:24;20.90;;;4.82;;
44462;SDS011;30170;52.190;8.702;2023-01-30T19:22:54;10.82;;;4.10;;
44462;SDS011;30170;52.190;8.702;2023-01-30T19:25:22;21.92;;;4.85;;
44462;SDS011;30170;52.190;8.702;2023-01-30T19:27:58;15.82;;;4.95;;
44462;SDS011;30170;52.190;8.702;2023-01-30T19:33:35;17.60;;;4.63;;
44462;SDS011;30170;52.190;8.702;2023-01-30T19:36:13;18.52;;;4.43;;
44462;SDS011;30170;52.190;8.702;2023-01-30T19:38:44;18.10;;;3.88;;